Time,TemperatureF,DewpointF,PressureIn,WindDirection,WindDirectionDegrees,WindSpeedMPH,WindSpeedGustMPH,Humidity,HourlyPrecipIn,Conditions,Clouds,dailyrainin,SoftwareType,DateUTC
2013-03-02 00:02:00,46.7,15.1,30.34,North,8,1.0,4.0,28,0.00,,,0.00,WUHU216DAVISVP2,2013-03-02 07:02:00,
2013-03-02 00:07:00,45.9,14.4,30.35,South,191,2.0,2.0,28,0.00,,,0.00,WUHU216DAVISVP2,2013-03-02 07:07:00,
2013-03-02 00:12:00,46.1,14.6,30.35,North,0,0.0,0.0,28,0.00,,,0.00,WUHU216DAVISVP2,2013-03-02 07:12:00,
2013-03-02 00:17:00,46.4,14.0,30.35,North,0,0.0,0.0,27,0.00,,,0.00,WUHU216DAVISVP2,2013-03-02 07:17:00,
2013-03-02 00:22:00,46.5,14.1,30.35,North,0,0.0,0.0,27,0.00,,,0.00,WUHU216DAVISVP2,2013-03-02 07:22:00,
2013-03-02 00:27:00,45.3,14.7,30.35,North,356,2.0,2.0,29,0.00,,,0.00,WUHU216DAVISVP2,2013-03-02 07:27:00,
2013-03-02 00:32:00,44.1,14.4,30.35,North,5,1.0,3.0,30,0.00,,,0.00,WUHU216DAVISVP2,2013-03-02 07:32:00,
2013-03-02 00:37:00,43.0,14.9,30.36,North,5,1.0,2.0,32,0.00,,,0.00,WUHU216DAVISVP2,2013-03-02 07:37:00,
2013-03-02 00:42:00,42.6,14.5,30.36,North,0,0.0,0.0,32,0.00,,,0.00,WUHU216DAVISVP2,2013-03-02 07:42:00,
2013-03-02 00:48:00,44.0,15.1,30.35,North,0,0.0,0.0,31,0.00,,,0.00,WUHU216DAVISVP2,2013-03-02 07:48:00,
2013-03-02 00:53:00,44.0,15.1,30.36,North,0,0.0,0.0,31,0.00,,,0.00,WUHU216DAVISVP2,2013-03-02 07:53:00,
2013-03-02 00:58:00,43.5,15.3,30.36,North,0,0.0,0.0,32,0.00,,,0.00,WUHU216DAVISVP2,2013-03-02 07:58:00,
2013-03-02 01:03:00,42.9,14.8,30.36,North,0,0.0,0.0,32,0.00,,,0.00,WUHU216DAVISVP2,2013-03-02 08:03:00,
2013-03-02 01:08:00,42.7,15.3,30.36,North,0,0.0,0.0,33,0.00,,,0.00,WUHU216DAVISVP2,2013-03-02 08:08:00,
2013-03-02 01:13:00,42.5,14.5,30.36,North,0,0.0,0.0,32,0.00,,,0.00,WUHU216DAVISVP2,2013-03-02 08:13:00,
2013-03-02 01:18:00,42.6,13.8,30.36,North,0,0.0,0.0,31,0.00,,,0.00,WUHU216DAVISVP2,2013-03-02 08:18:00,
2013-03-02 01:23:00,44.9,14.3,30.36,North,0,0.0,0.0,29,0.00,,,0.00,WUHU216DAVISVP2,2013-03-02 08:23:00,
2013-03-02 01:28:00,46.2,14.7,30.36,North,0,0.0,0.0,28,0.00,,,0.00,WUHU216DAVISVP2,2013-03-02 08:28:00,
2013-03-02 01:33:00,44.9,15.1,30.36,North,6,2.0,3.0,30,0.00,,,0.00,WUHU216DAVISVP2,2013-03-02 08:33:00,
2013-03-02 01:38:00,43.4,14.5,30.36,North,354,3.0,4.0,31,0.00,,,0.00,WUHU216DAVISVP2,2013-03-02 08:38:00,
2013-03-02 01:43:00,41.1,15.3,30.36,NNW,348,2.0,4.0,35,0.00,,,0.00,WUHU216DAVISVP2,2013-03-02 08:43:00,
2013-03-02 01:48:00,39.2,15.5,30.36,North,349,3.0,4.0,38,0.00,,,0.00,WUHU216DAVISVP2,2013-03-02 08:48:00,
2013-03-02 01:53:00,38.9,15.2,30.36,North,349,2.0,3.0,38,0.00,,,0.00,WUHU216DAVISVP2,2013-03-02 08:53:00,
2013-03-02 01:58:00,38.8,15.7,30.36,North,350,2.0,3.0,39,0.00,,,0.00,WUHU216DAVISVP2,2013-03-02 08:58:00,
2013-03-02 02:04:00,38.0,15.6,30.36,NNW,345,1.0,3.0,40,0.00,,,0.00,WUHU216DAVISVP2,2013-03-02 09:04:00,
2013-03-02 02:09:00,38.8,15.1,30.36,North,0,0.0,0.0,38,0.00,,,0.00,WUHU216DAVISVP2,2013-03-02 09:09:00,
2013-03-02 02:14:00,39.3,16.2,30.36,NNW,329,1.0,1.0,39,0.00,,,0.00,WUHU216DAVISVP2,2013-03-02 09:14:00,
2013-03-02 02:19:00,38.0,16.2,30.36,NNW,342,1.0,1.0,41,0.00,,,0.00,WUHU216DAVISVP2,2013-03-02 09:19:00,
2013-03-02 02:24:00,37.3,16.1,30.36,North,356,1.0,3.0,42,0.00,,,0.00,WUHU216DAVISVP2,2013-03-02 09:24:00,
2013-03-02 02:29:00,37.9,16.1,30.36,North,349,2.0,3.0,41,0.00,,,0.00,WUHU216DAVISVP2,2013-03-02 09:29:00,
2013-03-02 02:34:00,37.5,16.3,30.36,NNW,346,1.0,2.0,42,0.00,,,0.00,WUHU216DAVISVP2,2013-03-02 09:34:00,
2013-03-02 02:39:00,37.2,16.0,30.35,NNW,348,2.0,4.0,42,0.00,,,0.00,WUHU216DAVISVP2,2013-03-02 09:39:00,
2013-03-02 02:44:00,37.7,16.5,30.35,North,356,3.0,4.0,42,0.00,,,0.00,WUHU216DAVISVP2,2013-03-02 09:44:00,
2013-03-02 02:49:00,37.4,16.2,30.35,NNW,344,2.0,5.0,42,0.00,,,0.00,WUHU216DAVISVP2,2013-03-02 09:49:00,
2013-03-02 02:54:00,37.4,16.8,30.35,NNW,346,1.0,3.0,43,0.00,,,0.00,WUHU216DAVISVP2,2013-03-02 09:54:00,
2013-03-02 02:59:00,37.5,17.4,30.35,North,353,2.0,3.0,44,0.00,,,0.00,WUHU216DAVISVP2,2013-03-02 09:59:00,
2013-03-02 03:04:00,37.7,17.6,30.35,North,7,2.0,3.0,44,0.00,,,0.00,WUHU216DAVISVP2,2013-03-02 10:04:00,
2013-03-02 03:09:00,37.6,17.5,30.35,NNW,335,2.0,3.0,44,0.00,,,0.00,WUHU216DAVISVP2,2013-03-02 10:09:00,
2013-03-02 03:14:00,38.2,17.5,30.35,NNW,338,2.0,3.0,43,0.00,,,0.00,WUHU216DAVISVP2,2013-03-02 10:14:00,
2013-03-02 03:19:00,40.3,17.7,30.35,NNW,348,2.0,4.0,40,0.00,,,0.00,WUHU216DAVISVP2,2013-03-02 10:19:00,
2013-03-02 03:25:00,41.0,17.7,30.35,North,0,0.0,0.0,39,0.00,,,0.00,WUHU216DAVISVP2,2013-03-02 10:25:00,
2013-03-02 03:30:00,42.3,17.6,30.35,North,0,0.0,0.0,37,0.00,,,0.00,WUHU216DAVISVP2,2013-03-02 10:30:00,
2013-03-02 03:35:00,43.3,18.5,30.34,NNW,338,1.0,2.0,37,0.00,,,0.00,WUHU216DAVISVP2,2013-03-02 10:35:00,
2013-03-02 03:40:00,43.2,17.8,30.34,North,354,2.0,3.0,36,0.00,,,0.00,WUHU216DAVISVP2,2013-03-02 10:40:00,
2013-03-02 03:45:00,42.1,18.1,30.34,North,5,2.0,5.0,38,0.00,,,0.00,WUHU216DAVISVP2,2013-03-02 10:45:00,
2013-03-02 03:50:00,40.5,17.9,30.34,NNW,343,2.0,3.0,40,0.00,,,0.00,WUHU216DAVISVP2,2013-03-02 10:50:00,
2013-03-02 03:55:00,40.3,18.3,30.34,NNW,336,2.0,4.0,41,0.00,,,0.00,WUHU216DAVISVP2,2013-03-02 10:55:00,
2013-03-02 04:00:00,41.0,18.3,30.34,North,356,2.0,4.0,40,0.00,,,0.00,WUHU216DAVISVP2,2013-03-02 11:00:00,
2013-03-02 04:06:00,41.5,18.8,30.34,North,354,2.0,3.0,40,0.00,,,0.00,WUHU216DAVISVP2,2013-03-02 11:06:00,
2013-03-02 04:11:00,41.9,18.5,30.34,NNW,343,2.0,4.0,39,0.00,,,0.00,WUHU216DAVISVP2,2013-03-02 11:11:00,
2013-03-02 04:16:00,40.2,18.8,30.34,North,357,2.0,3.0,42,0.00,,,0.00,WUHU216DAVISVP2,2013-03-02 11:16:00,
2013-03-02 04:21:00,39.7,18.9,30.34,North,8,2.0,4.0,43,0.00,,,0.00,WUHU216DAVISVP2,2013-03-02 11:21:00,
2013-03-02 04:26:00,39.3,19.0,30.34,North,352,2.0,3.0,44,0.00,,,0.00,WUHU216DAVISVP2,2013-03-02 11:26:00,
2013-03-02 04:31:00,39.2,19.5,30.34,North,356,2.0,3.0,45,0.00,,,0.00,WUHU216DAVISVP2,2013-03-02 11:31:00,
2013-03-02 04:36:00,39.2,19.5,30.34,NNW,346,3.0,5.0,45,0.00,,,0.00,WUHU216DAVISVP2,2013-03-02 11:36:00,
2013-03-02 04:41:00,39.3,19.6,30.34,North,357,1.0,2.0,45,0.00,,,0.00,WUHU216DAVISVP2,2013-03-02 11:41:00,
2013-03-02 04:46:00,38.9,19.8,30.34,NNW,337,1.0,1.0,46,0.00,,,0.00,WUHU216DAVISVP2,2013-03-02 11:46:00,
2013-03-02 04:51:00,38.8,19.7,30.34,North,0,0.0,0.0,46,0.00,,,0.00,WUHU216DAVISVP2,2013-03-02 11:51:00,
2013-03-02 04:56:00,39.5,20.8,30.34,North,0,0.0,0.0,47,0.00,,,0.00,WUHU216DAVISVP2,2013-03-02 11:56:00,
2013-03-02 05:01:00,40.4,20.6,30.34,North,356,2.0,2.0,45,0.00,,,0.00,WUHU216DAVISVP2,2013-03-02 12:01:00,
2013-03-02 05:06:00,41.7,20.7,30.35,North,8,1.0,3.0,43,0.00,,,0.00,WUHU216DAVISVP2,2013-03-02 12:06:00,
2013-03-02 05:11:00,42.8,19.9,30.35,North,351,1.0,2.0,40,0.00,,,0.00,WUHU216DAVISVP2,2013-03-02 12:11:00,
2013-03-02 05:16:00,43.4,19.9,30.35,North,0,0.0,0.0,39,0.00,,,0.00,WUHU216DAVISVP2,2013-03-02 12:16:00,
2013-03-02 05:21:00,43.6,19.4,30.35,North,0,0.0,0.0,38,0.00,,,0.00,WUHU216DAVISVP2,2013-03-02 12:21:00,
2013-03-02 05:27:00,43.6,18.8,30.35,NNW,348,1.0,1.0,37,0.00,,,0.00,WUHU216DAVISVP2,2013-03-02 12:27:00,
2013-03-02 05:32:00,43.7,18.2,30.35,North,0,0.0,0.0,36,0.00,,,0.00,WUHU216DAVISVP2,2013-03-02 12:32:00,
2013-03-02 05:37:00,44.4,18.9,30.35,NNW,348,1.0,1.0,36,0.00,,,0.00,WUHU216DAVISVP2,2013-03-02 12:37:00,
2013-03-02 05:42:00,43.3,19.2,30.35,NNW,345,2.0,3.0,38,0.00,,,0.00,WUHU216DAVISVP2,2013-03-02 12:42:00,
2013-03-02 05:47:00,41.3,19.2,30.35,North,352,2.0,4.0,41,0.00,,,0.00,WUHU216DAVISVP2,2013-03-02 12:47:00,
2013-03-02 05:52:00,39.6,18.8,30.35,North,355,2.0,3.0,43,0.00,,,0.00,WUHU216DAVISVP2,2013-03-02 12:52:00,
2013-03-02 05:57:00,38.9,19.2,30.36,North,350,2.0,4.0,45,0.00,,,0.00,WUHU216DAVISVP2,2013-03-02 12:57:00,
2013-03-02 06:02:00,39.0,19.8,30.36,North,351,2.0,4.0,46,0.00,,,0.00,WUHU216DAVISVP2,2013-03-02 13:02:00,
2013-03-02 06:07:00,39.2,20.0,30.36,North,2,2.0,3.0,46,0.00,,,0.00,WUHU216DAVISVP2,2013-03-02 13:07:00,
2013-03-02 06:12:00,39.5,19.8,30.36,NNE,26,2.0,4.0,45,0.00,,,0.00,WUHU216DAVISVP2,2013-03-02 13:12:00,
2013-03-02 06:17:00,40.8,19.9,30.36,NNE,26,1.0,2.0,43,0.00,,,0.00,WUHU216DAVISVP2,2013-03-02 13:17:00,
2013-03-02 06:22:00,41.2,19.7,30.36,North,355,1.0,2.0,42,0.00,,,0.00,WUHU216DAVISVP2,2013-03-02 13:22:00,
2013-03-02 06:27:00,40.9,20.0,30.36,North,4,1.0,2.0,43,0.00,,,0.00,WUHU216DAVISVP2,2013-03-02 13:27:00,
2013-03-02 06:32:00,40.4,19.5,30.36,North,355,1.0,2.0,43,0.00,,,0.00,WUHU216DAVISVP2,2013-03-02 13:32:00,
2013-03-02 06:37:00,39.2,19.5,30.36,NNW,342,2.0,5.0,45,0.00,,,0.00,WUHU216DAVISVP2,2013-03-02 13:37:00,
2013-03-02 06:42:00,39.2,19.5,30.36,North,353,2.0,4.0,45,0.00,,,0.00,WUHU216DAVISVP2,2013-03-02 13:42:00,
2013-03-02 06:47:00,39.5,19.2,30.37,NNW,347,2.0,3.0,44,0.00,,,0.00,WUHU216DAVISVP2,2013-03-02 13:47:00,
2013-03-02 06:53:00,40.0,19.7,30.37,North,0,0.0,0.0,44,0.00,,,0.00,WUHU216DAVISVP2,2013-03-02 13:53:00,
2013-03-02 06:58:00,40.2,19.9,30.37,North,0,0.0,0.0,44,0.00,,,0.00,WUHU216DAVISVP2,2013-03-02 13:58:00,
2013-03-02 07:03:00,39.9,19.6,30.37,North,0,0.0,0.0,44,0.00,,,0.00,WUHU216DAVISVP2,2013-03-02 14:03:00,
2013-03-02 07:08:00,39.9,19.6,30.37,North,0,0.0,0.0,44,0.00,,,0.00,WUHU216DAVISVP2,2013-03-02 14:08:00,
2013-03-02 07:13:00,40.9,20.5,30.38,North,0,0.0,0.0,44,0.00,,,0.00,WUHU216DAVISVP2,2013-03-02 14:13:00,
2013-03-02 07:18:00,41.4,21.0,30.38,NNW,347,1.0,2.0,44,0.00,,,0.00,WUHU216DAVISVP2,2013-03-02 14:18:00,
2013-03-02 07:23:00,41.8,21.3,30.38,NNW,341,1.0,2.0,44,0.00,,,0.00,WUHU216DAVISVP2,2013-03-02 14:23:00,
2013-03-02 07:28:00,42.6,22.1,30.38,NNW,339,1.0,2.0,44,0.00,,,0.00,WUHU216DAVISVP2,2013-03-02 14:28:00,
2013-03-02 07:33:00,43.8,22.0,30.38,NNW,344,2.0,2.0,42,0.00,,,0.00,WUHU216DAVISVP2,2013-03-02 14:33:00,
2013-03-02 07:38:00,45.5,22.4,30.38,NNW,347,2.0,3.0,40,0.00,,,0.00,WUHU216DAVISVP2,2013-03-02 14:38:00,
2013-03-02 07:43:00,47.4,22.2,30.38,NNW,345,1.0,2.0,37,0.00,,,0.00,WUHU216DAVISVP2,2013-03-02 14:43:00,
2013-03-02 07:48:00,49.3,22.6,30.38,North,0,0.0,0.0,35,0.00,,,0.00,WUHU216DAVISVP2,2013-03-02 14:48:00,
2013-03-02 07:53:00,51.1,22.0,30.38,North,0,0.0,0.0,32,0.00,,,0.00,WUHU216DAVISVP2,2013-03-02 14:53:00,
2013-03-02 07:58:00,53.0,22.2,30.38,NNE,20,1.0,3.0,30,0.00,,,0.00,WUHU216DAVISVP2,2013-03-02 14:58:00,
2013-03-02 08:03:00,54.5,21.8,30.38,NE,37,1.0,2.0,28,0.00,,,0.00,WUHU216DAVISVP2,2013-03-02 15:03:00,
2013-03-02 08:08:00,55.9,21.3,30.38,NE,54,2.0,5.0,26,0.00,,,0.00,WUHU216DAVISVP2,2013-03-02 15:08:00,
2013-03-02 08:14:00,56.8,21.2,30.38,NE,35,2.0,5.0,25,0.00,,,0.00,WUHU216DAVISVP2,2013-03-02 15:14:00,
2013-03-02 08:19:00,57.4,21.7,30.38,ENE,57,3.0,7.0,25,0.00,,,0.00,WUHU216DAVISVP2,2013-03-02 15:19:00,
2013-03-02 08:24:00,57.7,21.0,30.38,NE,54,3.0,7.0,24,0.00,,,0.00,WUHU216DAVISVP2,2013-03-02 15:24:00,
2013-03-02 08:29:00,58.0,21.3,30.38,NE,52,4.0,8.0,24,0.00,,,0.00,WUHU216DAVISVP2,2013-03-02 15:29:00,
2013-03-02 08:34:00,58.3,21.5,30.38,NE,47,3.0,7.0,24,0.00,,,0.00,WUHU216DAVISVP2,2013-03-02 15:34:00,
2013-03-02 08:39:00,58.6,20.8,30.38,ENE,58,4.0,9.0,23,0.00,,,0.00,WUHU216DAVISVP2,2013-03-02 15:39:00,
2013-03-02 08:44:00,59.0,21.1,30.38,ENE,59,3.0,7.0,23,0.00,,,0.00,WUHU216DAVISVP2,2013-03-02 15:44:00,
2013-03-02 08:49:00,59.4,21.5,30.39,ENE,77,3.0,7.0,23,0.00,,,0.00,WUHU216DAVISVP2,2013-03-02 15:49:00,
2013-03-02 08:54:00,59.4,21.5,30.39,ESE,113,5.0,8.0,23,0.00,,,0.00,WUHU216DAVISVP2,2013-03-02 15:54:00,
2013-03-02 08:59:00,59.4,20.4,30.39,East,98,4.0,7.0,22,0.00,,,0.00,WUHU216DAVISVP2,2013-03-02 15:59:00,
2013-03-02 09:04:00,59.2,21.3,30.39,ESE,112,5.0,9.0,23,0.00,,,0.00,WUHU216DAVISVP2,2013-03-02 16:04:00,
2013-03-02 09:09:00,59.1,20.2,30.39,ESE,111,5.0,8.0,22,0.00,,,0.00,WUHU216DAVISVP2,2013-03-02 16:09:00,
2013-03-02 09:14:00,59.1,20.2,30.39,ESE,105,6.0,8.0,22,0.00,,,0.00,WUHU216DAVISVP2,2013-03-02 16:14:00,
2013-03-02 09:19:00,59.4,21.5,30.39,ESE,105,4.0,8.0,23,0.00,,,0.00,WUHU216DAVISVP2,2013-03-02 16:19:00,
2013-03-02 09:24:00,59.4,21.5,30.39,ESE,115,6.0,8.0,23,0.00,,,0.00,WUHU216DAVISVP2,2013-03-02 16:24:00,
2013-03-02 09:29:00,59.4,22.4,30.39,ESE,104,6.0,8.0,24,0.00,,,0.00,WUHU216DAVISVP2,2013-03-02 16:29:00,
2013-03-02 09:34:00,59.8,21.8,30.39,East,97,5.0,8.0,23,0.00,,,0.00,WUHU216DAVISVP2,2013-03-02 16:34:00,
2013-03-02 09:40:00,60.1,22.0,30.38,East,101,5.0,9.0,23,0.00,,,0.00,WUHU216DAVISVP2,2013-03-02 16:40:00,
2013-03-02 09:45:00,60.4,22.3,30.38,ESE,112,7.0,10.0,23,0.00,,,0.00,WUHU216DAVISVP2,2013-03-02 16:45:00,
2013-03-02 09:50:00,60.6,22.5,30.38,ESE,106,7.0,10.0,23,0.00,,,0.00,WUHU216DAVISVP2,2013-03-02 16:50:00,
2013-03-02 09:55:00,60.1,22.0,30.38,ESE,107,8.0,11.0,23,0.00,,,0.00,WUHU216DAVISVP2,2013-03-02 16:55:00,
2013-03-02 10:00:00,60.2,21.1,30.38,ESE,105,8.0,10.0,22,0.00,,,0.00,WUHU216DAVISVP2,2013-03-02 17:00:00,
2013-03-02 10:05:00,60.0,20.9,30.38,ESE,102,8.0,11.0,22,0.00,,,0.00,WUHU216DAVISVP2,2013-03-02 17:05:00,
2013-03-02 10:10:00,60.2,21.1,30.38,East,99,7.0,10.0,22,0.00,,,0.00,WUHU216DAVISVP2,2013-03-02 17:10:00,
2013-03-02 10:15:00,60.1,21.0,30.37,East,101,7.0,10.0,22,0.00,,,0.00,WUHU216DAVISVP2,2013-03-02 17:15:00,
2013-03-02 10:20:00,60.4,21.3,30.38,ESE,102,7.0,10.0,22,0.00,,,0.00,WUHU216DAVISVP2,2013-03-02 17:20:00,
2013-03-02 10:25:00,60.5,21.3,30.37,East,91,7.0,10.0,22,0.00,,,0.00,WUHU216DAVISVP2,2013-03-02 17:25:00,
2013-03-02 10:30:00,60.3,20.1,30.37,ENE,78,6.0,10.0,21,0.00,,,0.00,WUHU216DAVISVP2,2013-03-02 17:30:00,
2013-03-02 10:35:00,60.5,20.3,30.37,East,101,5.0,8.0,21,0.00,,,0.00,WUHU216DAVISVP2,2013-03-02 17:35:00,
2013-03-02 10:41:00,60.6,20.4,30.37,East,90,6.0,10.0,21,0.00,,,0.00,WUHU216DAVISVP2,2013-03-02 17:41:00,
2013-03-02 10:46:00,60.9,20.6,30.37,ESE,102,6.0,9.0,21,0.00,,,0.00,WUHU216DAVISVP2,2013-03-02 17:46:00,
2013-03-02 10:51:00,61.2,19.7,30.36,East,96,6.0,10.0,20,0.00,,,0.00,WUHU216DAVISVP2,2013-03-02 17:51:00,
2013-03-02 10:56:00,61.4,21.0,30.36,ESE,107,7.0,10.0,21,0.00,,,0.00,WUHU216DAVISVP2,2013-03-02 17:56:00,
2013-03-02 11:01:00,61.8,20.2,30.36,ESE,118,6.0,10.0,20,0.00,,,0.00,WUHU216DAVISVP2,2013-03-02 18:01:00,
2013-03-02 11:06:00,61.8,20.2,30.36,ESE,116,4.0,9.0,20,0.00,,,0.00,WUHU216DAVISVP2,2013-03-02 18:06:00,
2013-03-02 11:11:00,61.9,20.3,30.36,East,87,5.0,9.0,20,0.00,,,0.00,WUHU216DAVISVP2,2013-03-02 18:11:00,
2013-03-02 11:16:00,62.3,20.6,30.35,East,87,6.0,10.0,20,0.00,,,0.00,WUHU216DAVISVP2,2013-03-02 18:16:00,
2013-03-02 11:21:00,62.9,19.9,30.35,ESE,118,5.0,10.0,19,0.00,,,0.00,WUHU216DAVISVP2,2013-03-02 18:21:00,
2013-03-02 11:26:00,62.9,19.9,30.35,East,93,5.0,10.0,19,0.00,,,0.00,WUHU216DAVISVP2,2013-03-02 18:26:00,
2013-03-02 11:31:00,62.8,19.9,30.35,SSE,149,5.0,8.0,19,0.00,,,0.00,WUHU216DAVISVP2,2013-03-02 18:31:00,
2013-03-02 11:36:00,63.1,20.1,30.35,SE,137,7.0,11.0,19,0.00,,,0.00,WUHU216DAVISVP2,2013-03-02 18:36:00,
2013-03-02 11:41:00,62.9,19.9,30.35,SE,138,5.0,11.0,19,0.00,,,0.00,WUHU216DAVISVP2,2013-03-02 18:41:00,
2013-03-02 11:46:00,63.0,20.0,30.35,SE,141,5.0,12.0,19,0.00,,,0.00,WUHU216DAVISVP2,2013-03-02 18:46:00,
2013-03-02 11:51:00,63.3,20.3,30.34,SE,142,5.0,8.0,19,0.00,,,0.00,WUHU216DAVISVP2,2013-03-02 18:51:00,
2013-03-02 11:57:00,63.5,20.4,30.34,SSE,147,5.0,11.0,19,0.00,,,0.00,WUHU216DAVISVP2,2013-03-02 18:57:00,
2013-03-02 12:02:00,63.6,19.3,30.34,SE,144,6.0,11.0,18,0.00,,,0.00,WUHU216DAVISVP2,2013-03-02 19:02:00,
2013-03-02 12:07:00,63.5,19.2,30.34,SE,128,5.0,11.0,18,0.00,,,0.00,WUHU216DAVISVP2,2013-03-02 19:07:00,
2013-03-02 12:12:00,64.0,19.6,30.34,ESE,106,5.0,9.0,18,0.00,,,0.00,WUHU216DAVISVP2,2013-03-02 19:12:00,
2013-03-02 12:17:00,64.3,19.8,30.33,SE,132,6.0,13.0,18,0.00,,,0.00,WUHU216DAVISVP2,2013-03-02 19:17:00,
2013-03-02 12:22:00,64.6,20.1,30.33,ESE,120,6.0,11.0,18,0.00,,,0.00,WUHU216DAVISVP2,2013-03-02 19:22:00,
2013-03-02 12:27:00,64.8,18.9,30.33,ESE,103,5.0,9.0,17,0.00,,,0.00,WUHU216DAVISVP2,2013-03-02 19:27:00,
2013-03-02 12:32:00,65.0,17.6,30.32,ESE,116,6.0,11.0,16,0.00,,,0.00,WUHU216DAVISVP2,2013-03-02 19:32:00,
2013-03-02 12:37:00,64.9,19.0,30.32,SE,136,5.0,10.0,17,0.00,,,0.00,WUHU216DAVISVP2,2013-03-02 19:37:00,
2013-03-02 12:42:00,65.3,17.9,30.32,ESE,119,6.0,11.0,16,0.00,,,0.00,WUHU216DAVISVP2,2013-03-02 19:42:00,
2013-03-02 12:47:00,65.4,18.0,30.32,SE,125,6.0,10.0,16,0.00,,,0.00,WUHU216DAVISVP2,2013-03-02 19:47:00,
2013-03-02 12:52:00,65.2,16.3,30.31,East,86,6.0,11.0,15,0.00,,,0.00,WUHU216DAVISVP2,2013-03-02 19:52:00,
2013-03-02 12:57:00,65.5,18.0,30.31,ESE,115,4.0,10.0,16,0.00,,,0.00,WUHU216DAVISVP2,2013-03-02 19:57:00,
2013-03-02 13:02:00,65.9,16.9,30.30,SE,136,5.0,9.0,15,0.00,,,0.00,WUHU216DAVISVP2,2013-03-02 20:02:00,
2013-03-02 13:07:00,66.1,18.5,30.30,SE,125,4.0,10.0,16,0.00,,,0.00,WUHU216DAVISVP2,2013-03-02 20:07:00,
2013-03-02 13:13:00,66.3,17.2,30.30,ESE,111,6.0,11.0,15,0.00,,,0.00,WUHU216DAVISVP2,2013-03-02 20:13:00,
2013-03-02 13:18:00,66.4,18.8,30.29,South,176,4.0,7.0,16,0.00,,,0.00,WUHU216DAVISVP2,2013-03-02 20:18:00,
2013-03-02 13:23:00,67.2,17.9,30.29,ESE,118,4.0,9.0,15,0.00,,,0.00,WUHU216DAVISVP2,2013-03-02 20:23:00,
2013-03-02 13:28:00,66.9,16.0,30.28,ESE,115,6.0,16.0,14,0.00,,,0.00,WUHU216DAVISVP2,2013-03-02 20:28:00,
2013-03-02 13:33:00,66.9,16.0,30.28,ESE,116,3.0,7.0,14,0.00,,,0.00,WUHU216DAVISVP2,2013-03-02 20:33:00,
2013-03-02 13:38:00,67.1,17.8,30.28,East,100,4.0,9.0,15,0.00,,,0.00,WUHU216DAVISVP2,2013-03-02 20:38:00,
2013-03-02 13:43:00,67.3,18.0,30.27,East,90,3.0,8.0,15,0.00,,,0.00,WUHU216DAVISVP2,2013-03-02 20:43:00,
2013-03-02 13:48:00,67.8,16.7,30.27,SE,145,3.0,8.0,14,0.00,,,0.00,WUHU216DAVISVP2,2013-03-02 20:48:00,
2013-03-02 13:53:00,68.8,15.8,30.27,SE,145,3.0,11.0,13,0.00,,,0.00,WUHU216DAVISVP2,2013-03-02 20:53:00,
2013-03-02 13:58:00,68.7,15.7,30.27,South,181,4.0,7.0,13,0.00,,,0.00,WUHU216DAVISVP2,2013-03-02 20:58:00,
2013-03-02 14:03:00,69.0,17.7,30.26,SSE,148,3.0,8.0,14,0.00,,,0.00,WUHU216DAVISVP2,2013-03-02 21:03:00,
2013-03-02 14:08:00,68.8,17.5,30.26,ESE,114,4.0,7.0,14,0.00,,,0.00,WUHU216DAVISVP2,2013-03-02 21:08:00,
2013-03-02 14:13:00,69.0,15.9,30.26,SE,146,5.0,10.0,13,0.00,,,0.00,WUHU216DAVISVP2,2013-03-02 21:13:00,
2013-03-02 14:18:00,69.0,15.9,30.26,South,179,3.0,5.0,13,0.00,,,0.00,WUHU216DAVISVP2,2013-03-02 21:18:00,
2013-03-02 14:24:00,69.4,16.3,30.26,South,172,2.0,6.0,13,0.00,,,0.00,WUHU216DAVISVP2,2013-03-02 21:24:00,
2013-03-02 14:29:00,69.5,16.3,30.26,ENE,67,2.0,7.0,13,0.00,,,0.00,WUHU216DAVISVP2,2013-03-02 21:29:00,
2013-03-02 14:34:00,69.2,16.1,30.25,ENE,78,4.0,7.0,13,0.00,,,0.00,WUHU216DAVISVP2,2013-03-02 21:34:00,
2013-03-02 14:39:00,69.4,16.3,30.25,SE,145,3.0,6.0,13,0.00,,,0.00,WUHU216DAVISVP2,2013-03-02 21:39:00,
2013-03-02 14:44:00,69.8,14.7,30.25,SSE,151,4.0,7.0,12,0.00,,,0.00,WUHU216DAVISVP2,2013-03-02 21:44:00,
2013-03-02 14:49:00,70.0,14.8,30.25,SSE,152,3.0,7.0,12,0.00,,,0.00,WUHU216DAVISVP2,2013-03-02 21:49:00,
2013-03-02 14:54:00,70.8,15.5,30.25,SW,232,1.0,1.0,12,0.00,,,0.00,WUHU216DAVISVP2,2013-03-02 21:54:00,
2013-03-02 14:59:00,71.2,15.8,30.24,SSE,149,2.0,4.0,12,0.00,,,0.00,WUHU216DAVISVP2,2013-03-02 21:59:00,
2013-03-02 15:04:00,71.4,15.9,30.24,South,189,3.0,7.0,12,0.00,,,0.00,WUHU216DAVISVP2,2013-03-02 22:04:00,
2013-03-02 15:09:00,71.3,15.9,30.24,SE,124,3.0,7.0,12,0.00,,,0.00,WUHU216DAVISVP2,2013-03-02 22:09:00,
2013-03-02 15:14:00,71.0,13.6,30.24,SSE,156,3.0,5.0,11,0.00,,,0.00,WUHU216DAVISVP2,2013-03-02 22:14:00,
2013-03-02 15:19:00,70.8,15.5,30.24,ESE,109,3.0,6.0,12,0.00,,,0.00,WUHU216DAVISVP2,2013-03-02 22:19:00,
2013-03-02 15:24:00,71.5,14.0,30.24,South,184,3.0,6.0,11,0.00,,,0.00,WUHU216DAVISVP2,2013-03-02 22:24:00,
2013-03-02 15:29:00,71.6,14.0,30.23,SW,224,2.0,5.0,11,0.00,,,0.00,WUHU216DAVISVP2,2013-03-02 22:29:00,
2013-03-02 15:35:00,71.7,14.1,30.23,SSE,153,4.0,8.0,11,0.00,,,0.00,WUHU216DAVISVP2,2013-03-02 22:35:00,
2013-03-02 15:40:00,71.4,13.9,30.23,SSE,147,6.0,9.0,11,0.00,,,0.00,WUHU216DAVISVP2,2013-03-02 22:40:00,
2013-03-02 15:45:00,71.2,13.7,30.23,ENE,75,3.0,8.0,11,0.00,,,0.00,WUHU216DAVISVP2,2013-03-02 22:45:00,
2013-03-02 15:50:00,71.1,13.7,30.23,South,169,3.0,6.0,11,0.00,,,0.00,WUHU216DAVISVP2,2013-03-02 22:50:00,
2013-03-02 15:55:00,71.6,11.8,30.23,SW,214,2.0,3.0,10,0.00,,,0.00,WUHU216DAVISVP2,2013-03-02 22:55:00,
2013-03-02 16:00:00,71.9,14.3,30.22,SE,146,3.0,6.0,11,0.00,,,0.00,WUHU216DAVISVP2,2013-03-02 23:00:00,
2013-03-02 16:05:00,72.0,14.4,30.22,SSE,163,3.0,7.0,11,0.00,,,0.00,WUHU216DAVISVP2,2013-03-02 23:05:00,
2013-03-02 16:10:00,72.1,12.2,30.22,SSW,197,3.0,6.0,10,0.00,,,0.00,WUHU216DAVISVP2,2013-03-02 23:10:00,
2013-03-02 16:15:00,72.5,12.5,30.22,South,191,3.0,6.0,10,0.00,,,0.00,WUHU216DAVISVP2,2013-03-02 23:15:00,
2013-03-02 16:20:00,72.5,12.5,30.22,SSW,203,3.0,6.0,10,0.00,,,0.00,WUHU216DAVISVP2,2013-03-02 23:20:00,
2013-03-02 16:25:00,72.8,10.3,30.22,SW,236,4.0,6.0,9,0.00,,,0.00,WUHU216DAVISVP2,2013-03-02 23:25:00,
2013-03-02 16:30:00,73.0,10.5,30.22,SW,215,2.0,5.0,9,0.00,,,0.00,WUHU216DAVISVP2,2013-03-02 23:30:00,
2013-03-02 16:35:00,72.8,10.3,30.22,SW,230,2.0,6.0,9,0.00,,,0.00,WUHU216DAVISVP2,2013-03-02 23:35:00,
2013-03-02 16:40:00,72.7,10.3,30.22,SW,235,2.0,4.0,9,0.00,,,0.00,WUHU216DAVISVP2,2013-03-02 23:40:00,
2013-03-02 16:46:00,72.7,10.3,30.21,West,262,2.0,4.0,9,0.00,,,0.00,WUHU216DAVISVP2,2013-03-02 23:46:00,
2013-03-02 16:51:00,73.3,10.7,30.21,West,262,1.0,1.0,9,0.00,,,0.00,WUHU216DAVISVP2,2013-03-02 23:51:00,
2013-03-02 16:56:00,73.7,11.0,30.21,SW,232,3.0,4.0,9,0.00,,,0.00,WUHU216DAVISVP2,2013-03-02 23:56:00,
2013-03-02 17:01:00,73.7,11.0,30.21,SW,215,2.0,3.0,9,0.00,,,0.00,WUHU216DAVISVP2,2013-03-03 00:01:00,
2013-03-02 17:06:00,73.7,8.4,30.21,WSW,248,2.0,3.0,8,0.00,,,0.00,WUHU216DAVISVP2,2013-03-03 00:06:00,
2013-03-02 17:11:00,73.5,10.9,30.21,SSW,200,2.0,4.0,9,0.00,,,0.00,WUHU216DAVISVP2,2013-03-03 00:11:00,
2013-03-02 17:16:00,73.0,10.5,30.20,SSW,194,2.0,4.0,9,0.00,,,0.00,WUHU216DAVISVP2,2013-03-03 00:16:00,
2013-03-02 17:21:00,72.6,10.2,30.20,SSW,211,2.0,4.0,9,0.00,,,0.00,WUHU216DAVISVP2,2013-03-03 00:21:00,
2013-03-02 17:26:00,72.3,9.9,30.20,South,176,1.0,2.0,9,0.00,,,0.00,WUHU216DAVISVP2,2013-03-03 00:26:00,
2013-03-02 17:31:00,71.9,9.6,30.20,SSE,168,1.0,1.0,9,0.00,,,0.00,WUHU216DAVISVP2,2013-03-03 00:31:00,
2013-03-02 17:36:00,71.5,9.3,30.20,SE,145,2.0,3.0,9,0.00,,,0.00,WUHU216DAVISVP2,2013-03-03 00:36:00,
2013-03-02 17:41:00,71.1,11.4,30.20,SE,145,1.0,2.0,10,0.00,,,0.00,WUHU216DAVISVP2,2013-03-03 00:41:00,
2013-03-02 17:46:00,70.8,11.2,30.20,SSE,148,1.0,2.0,10,0.00,,,0.00,WUHU216DAVISVP2,2013-03-03 00:46:00,
2013-03-02 17:51:00,70.5,11.0,30.20,SSE,148,1.0,2.0,10,0.00,,,0.00,WUHU216DAVISVP2,2013-03-03 00:51:00,
2013-03-02 17:57:00,70.1,12.9,30.20,SSE,148,1.0,1.0,11,0.00,,,0.00,WUHU216DAVISVP2,2013-03-03 00:57:00,
2013-03-02 18:02:00,69.5,12.4,30.20,North,0,0.0,0.0,11,0.00,,,0.00,WUHU216DAVISVP2,2013-03-03 01:02:00,
2013-03-02 18:07:00,68.9,14.0,30.19,North,0,0.0,0.0,12,0.00,,,0.00,WUHU216DAVISVP2,2013-03-03 01:07:00,
2013-03-02 18:12:00,67.7,13.1,30.19,North,0,0.0,0.0,12,0.00,,,0.00,WUHU216DAVISVP2,2013-03-03 01:12:00,
2013-03-02 18:17:00,66.7,12.3,30.20,North,0,0.0,0.0,12,0.00,,,0.00,WUHU216DAVISVP2,2013-03-03 01:17:00,
2013-03-02 18:22:00,64.6,14.2,30.19,North,0,0.0,0.0,14,0.00,,,0.00,WUHU216DAVISVP2,2013-03-03 01:22:00,
2013-03-02 18:27:00,61.7,15.0,30.19,NNW,341,2.0,3.0,16,0.00,,,0.00,WUHU216DAVISVP2,2013-03-03 01:27:00,
2013-03-02 18:32:00,59.9,12.0,30.19,North,352,1.0,1.0,15,0.00,,,0.00,WUHU216DAVISVP2,2013-03-03 01:32:00,
2013-03-02 18:37:00,59.2,12.9,30.20,NNW,348,1.0,2.0,16,0.00,,,0.00,WUHU216DAVISVP2,2013-03-03 01:37:00,
2013-03-02 18:42:00,58.8,12.6,30.20,North,351,1.0,2.0,16,0.00,,,0.00,WUHU216DAVISVP2,2013-03-03 01:42:00,
2013-03-02 18:47:00,58.8,12.6,30.20,North,355,1.0,2.0,16,0.00,,,0.00,WUHU216DAVISVP2,2013-03-03 01:47:00,
2013-03-02 18:52:00,58.2,13.5,30.20,North,355,1.0,2.0,17,0.00,,,0.00,WUHU216DAVISVP2,2013-03-03 01:52:00,
2013-03-02 18:57:00,57.9,13.3,30.20,North,355,1.0,2.0,17,0.00,,,0.00,WUHU216DAVISVP2,2013-03-03 01:57:00,
2013-03-02 19:02:00,57.6,13.0,30.20,North,353,1.0,2.0,17,0.00,,,0.00,WUHU216DAVISVP2,2013-03-03 02:02:00,
2013-03-02 19:07:00,57.5,14.2,30.20,North,351,1.0,1.0,18,0.00,,,0.00,WUHU216DAVISVP2,2013-03-03 02:07:00,
2013-03-02 19:12:00,57.3,14.1,30.20,North,351,1.0,1.0,18,0.00,,,0.00,WUHU216DAVISVP2,2013-03-03 02:12:00,
2013-03-02 19:18:00,57.0,13.8,30.20,North,351,1.0,2.0,18,0.00,,,0.00,WUHU216DAVISVP2,2013-03-03 02:18:00,
2013-03-02 19:23:00,56.6,13.5,30.20,North,351,1.0,2.0,18,0.00,,,0.00,WUHU216DAVISVP2,2013-03-03 02:23:00,
2013-03-02 19:28:00,56.6,13.5,30.20,North,351,1.0,2.0,18,0.00,,,0.00,WUHU216DAVISVP2,2013-03-03 02:28:00,
2013-03-02 19:33:00,56.7,13.6,30.20,North,351,1.0,2.0,18,0.00,,,0.00,WUHU216DAVISVP2,2013-03-03 02:33:00,
2013-03-02 19:38:00,56.3,14.5,30.20,North,351,1.0,3.0,19,0.00,,,0.00,WUHU216DAVISVP2,2013-03-03 02:38:00,
2013-03-02 19:43:00,55.7,14.0,30.20,North,353,1.0,3.0,19,0.00,,,0.00,WUHU216DAVISVP2,2013-03-03 02:43:00,
2013-03-02 19:48:00,55.4,13.7,30.20,NNW,342,1.0,3.0,19,0.00,,,0.00,WUHU216DAVISVP2,2013-03-03 02:48:00,
2013-03-02 19:53:00,55.5,13.8,30.20,NNW,339,1.0,2.0,19,0.00,,,0.00,WUHU216DAVISVP2,2013-03-03 02:53:00,
2013-03-02 19:58:00,55.5,13.8,30.20,NNW,338,1.0,2.0,19,0.00,,,0.00,WUHU216DAVISVP2,2013-03-03 02:58:00,
2013-03-02 20:03:00,55.6,13.9,30.20,NNW,338,1.0,3.0,19,0.00,,,0.00,WUHU216DAVISVP2,2013-03-03 03:03:00,
2013-03-02 20:08:00,55.6,13.9,30.20,NNW,338,1.0,2.0,19,0.00,,,0.00,WUHU216DAVISVP2,2013-03-03 03:08:00,
2013-03-02 20:13:00,55.2,13.6,30.20,NNW,338,1.0,3.0,19,0.00,,,0.00,WUHU216DAVISVP2,2013-03-03 03:13:00,
2013-03-02 20:18:00,54.9,13.3,30.20,NNW,337,2.0,3.0,19,0.00,,,0.00,WUHU216DAVISVP2,2013-03-03 03:18:00,
2013-03-02 20:23:00,54.7,13.2,30.20,NNW,336,2.0,3.0,19,0.00,,,0.00,WUHU216DAVISVP2,2013-03-03 03:23:00,
2013-03-02 20:28:00,54.8,13.2,30.20,NNW,336,1.0,3.0,19,0.00,,,0.00,WUHU216DAVISVP2,2013-03-03 03:28:00,
2013-03-02 20:33:00,55.0,13.4,30.20,NNW,336,1.0,2.0,19,0.00,,,0.00,WUHU216DAVISVP2,2013-03-03 03:33:00,
2013-03-02 20:39:00,54.9,13.3,30.20,NNW,336,1.0,2.0,19,0.00,,,0.00,WUHU216DAVISVP2,2013-03-03 03:39:00,
2013-03-02 20:44:00,54.5,13.0,30.20,NNW,336,1.0,2.0,19,0.00,,,0.00,WUHU216DAVISVP2,2013-03-03 03:44:00,
2013-03-02 20:49:00,53.9,13.7,30.20,NNW,336,2.0,2.0,20,0.00,,,0.00,WUHU216DAVISVP2,2013-03-03 03:49:00,
2013-03-02 20:54:00,53.0,14.0,30.20,NNW,336,2.0,3.0,21,0.00,,,0.00,WUHU216DAVISVP2,2013-03-03 03:54:00,
2013-03-02 20:59:00,52.8,12.7,30.20,NNW,336,1.0,2.0,20,0.00,,,0.00,WUHU216DAVISVP2,2013-03-03 03:59:00,
2013-03-02 21:04:00,52.9,12.8,30.20,NNW,336,1.0,2.0,20,0.00,,,0.00,WUHU216DAVISVP2,2013-03-03 04:04:00,
2013-03-02 21:09:00,51.9,14.1,30.20,NNW,336,1.0,2.0,22,0.00,,,0.00,WUHU216DAVISVP2,2013-03-03 04:09:00,
2013-03-02 21:14:00,51.2,14.5,30.20,NNW,336,2.0,3.0,23,0.00,,,0.00,WUHU216DAVISVP2,2013-03-03 04:14:00,
2013-03-02 21:19:00,49.7,15.1,30.20,NNW,336,2.0,3.0,25,0.00,,,0.00,WUHU216DAVISVP2,2013-03-03 04:19:00,
2013-03-02 21:24:00,48.1,14.6,30.20,NNW,336,2.0,3.0,26,0.00,,,0.00,WUHU216DAVISVP2,2013-03-03 04:24:00,
2013-03-02 21:29:00,47.6,15.1,30.21,NNW,336,2.0,3.0,27,0.00,,,0.00,WUHU216DAVISVP2,2013-03-03 04:29:00,
2013-03-02 21:34:00,47.0,15.4,30.20,NNW,336,2.0,3.0,28,0.00,,,0.00,WUHU216DAVISVP2,2013-03-03 04:34:00,
2013-03-02 21:39:00,46.7,15.1,30.20,NNW,336,3.0,3.0,28,0.00,,,0.00,WUHU216DAVISVP2,2013-03-03 04:39:00,
2013-03-02 21:44:00,46.7,15.1,30.20,NNW,336,3.0,4.0,28,0.00,,,0.00,WUHU216DAVISVP2,2013-03-03 04:44:00,
2013-03-02 21:49:00,47.3,14.8,30.20,NNW,336,2.0,3.0,27,0.00,,,0.00,WUHU216DAVISVP2,2013-03-03 04:49:00,
2013-03-02 21:54:00,47.2,15.5,30.20,NNW,341,3.0,4.0,28,0.00,,,0.00,WUHU216DAVISVP2,2013-03-03 04:54:00,
2013-03-02 21:59:00,46.6,16.6,30.20,NNW,348,3.0,4.0,30,0.00,,,0.00,WUHU216DAVISVP2,2013-03-03 04:59:00,
2013-03-02 22:05:00,45.8,16.6,30.20,NNW,346,3.0,3.0,31,0.00,,,0.00,WUHU216DAVISVP2,2013-03-03 05:05:00,
2013-03-02 22:10:00,45.0,16.7,30.20,NNW,345,2.0,3.0,32,0.00,,,0.00,WUHU216DAVISVP2,2013-03-03 05:10:00,
2013-03-02 22:15:00,44.5,16.9,30.20,NNW,345,3.0,4.0,33,0.00,,,0.00,WUHU216DAVISVP2,2013-03-03 05:15:00,
2013-03-02 22:20:00,44.2,16.7,30.20,NNW,346,2.0,3.0,33,0.00,,,0.00,WUHU216DAVISVP2,2013-03-03 05:20:00,
2013-03-02 22:25:00,44.7,15.7,30.20,NNW,345,2.0,3.0,31,0.00,,,0.00,WUHU216DAVISVP2,2013-03-03 05:25:00,
2013-03-02 22:30:00,46.3,13.9,30.20,West,278,1.0,3.0,27,0.00,,,0.00,WUHU216DAVISVP2,2013-03-03 05:30:00,
2013-03-02 22:35:00,50.0,13.5,30.20,NW,311,3.0,5.0,23,0.00,,,0.00,WUHU216DAVISVP2,2013-03-03 05:35:00,
2013-03-02 22:40:00,51.7,14.0,30.20,NW,322,2.0,5.0,22,0.00,,,0.00,WUHU216DAVISVP2,2013-03-03 05:40:00,
2013-03-02 22:45:00,52.3,14.5,30.20,NNW,333,5.0,8.0,22,0.00,,,0.00,WUHU216DAVISVP2,2013-03-03 05:45:00,
2013-03-02 22:50:00,53.1,13.0,30.20,NW,319,4.0,7.0,20,0.00,,,0.00,WUHU216DAVISVP2,2013-03-03 05:50:00,
2013-03-02 22:55:00,55.0,12.2,30.20,NW,305,4.0,6.0,18,0.00,,,0.00,WUHU216DAVISVP2,2013-03-03 05:55:00,
2013-03-02 23:00:00,56.4,12.1,30.20,WNW,302,4.0,6.0,17,0.00,,,0.00,WUHU216DAVISVP2,2013-03-03 06:00:00,
2013-03-02 23:05:00,57.0,12.5,30.20,NW,313,3.0,6.0,17,0.00,,,0.00,WUHU216DAVISVP2,2013-03-03 06:05:00,
2013-03-02 23:11:00,57.2,12.7,30.20,NW,317,3.0,4.0,17,0.00,,,0.00,WUHU216DAVISVP2,2013-03-03 06:11:00,
2013-03-02 23:16:00,56.6,13.5,30.20,NW,325,4.0,6.0,18,0.00,,,0.00,WUHU216DAVISVP2,2013-03-03 06:16:00,
2013-03-02 23:21:00,56.8,14.9,30.20,NW,318,3.0,6.0,19,0.00,,,0.00,WUHU216DAVISVP2,2013-03-03 06:21:00,
2013-03-02 23:26:00,57.1,15.2,30.20,NW,319,3.0,6.0,19,0.00,,,0.00,WUHU216DAVISVP2,2013-03-03 06:26:00,
2013-03-02 23:31:00,57.5,15.5,30.20,NW,314,3.0,6.0,19,0.00,,,0.00,WUHU216DAVISVP2,2013-03-03 06:31:00,
2013-03-02 23:36:00,57.9,15.8,30.19,NW,316,2.0,5.0,19,0.00,,,0.00,WUHU216DAVISVP2,2013-03-03 06:36:00,
2013-03-02 23:41:00,57.8,15.7,30.19,NNW,335,2.0,3.0,19,0.00,,,0.00,WUHU216DAVISVP2,2013-03-03 06:41:00,
2013-03-02 23:46:00,56.2,15.6,30.19,NNW,335,2.0,3.0,20,0.00,,,0.00,WUHU216DAVISVP2,2013-03-03 06:46:00,
2013-03-02 23:51:00,54.2,16.1,30.19,North,0,0.0,0.0,22,0.00,,,0.00,WUHU216DAVISVP2,2013-03-03 06:51:00,
2013-03-02 23:56:00,52.4,15.5,30.19,NW,321,1.0,1.0,23,0.00,,,0.00,WUHU216DAVISVP2,2013-03-03 06:56:00,